sensor_id;sensor_type;location;lat;lon;timestamp;P1;durP1;ratioP1;P2;durP2;ratioP2
77701;SDS011;66868;42.708;23.404;2024-02-04T00:01:28;19.80;;;10.07;;
77701;SDS011;66868;42.708;23.404;2024-02-04T00:03:54;22.70;;;10.77;;
77701;SDS011;66868;42.708;23.404;2024-02-04T00:06:19;17.27;;;10.00;;
77701;SDS011;66868;42.708;23.404;2024-02-04T00:08:45;24.37;;;10.13;;
77701;SDS011;66868;42.708;23.404;2024-02-04T00:11:10;14.53;;;9.30;;
77701;SDS011;66868;42.708;23.404;2024-02-04T00:13:37;19.47;;;9.90;;
77701;SDS011;66868;42.708;23.404;2024-02-04T00:16:03;17.07;;;8.90;;
77701;SDS011;66868;42.708;23.404;2024-02-04T00:18:30;18.00;;;9.47;;
77701;SDS011;66868;42.708;23.404;2024-02-04T00:20:55;17.17;;;9.60;;
77701;SDS011;66868;42.708;23.404;2024-02-04T00:23:21;21.47;;;10.97;;
77701;SDS011;66868;42.708;23.404;2024-02-04T00:25:46;18.03;;;9.93;;
77701;SDS011;66868;42.708;23.404;2024-02-04T00:28:12;17.97;;;9.87;;
77701;SDS011;66868;42.708;23.404;2024-02-04T00:30:37;16.77;;;9.77;;
77701;SDS011;66868;42.708;23.404;2024-02-04T00:33:03;18.43;;;8.87;;
77701;SDS011;66868;42.708;23.404;2024-02-04T00:35:29;15.93;;;9.00;;
77701;SDS011;66868;42.708;23.404;2024-02-04T00:37:55;16.87;;;9.77;;
77701;SDS011;66868;42.708;23.404;2024-02-04T00:40:21;16.23;;;9.57;;
77701;SDS011;66868;42.708;23.404;2024-02-04T00:42:46;17.43;;;9.20;;
77701;SDS011;66868;42.708;23.404;2024-02-04T00:45:12;13.57;;;8.43;;
77701;SDS011;66868;42.708;23.404;2024-02-04T00:47:37;12.27;;;8.20;;
77701;SDS011;66868;42.708;23.404;2024-02-04T00:50:03;14.37;;;8.33;;
77701;SDS011;66868;42.708;23.404;2024-02-04T00:52:29;15.03;;;8.63;;
77701;SDS011;66868;42.708;23.404;2024-02-04T00:54:54;18.17;;;9.03;;
77701;SDS011;66868;42.708;23.404;2024-02-04T00:57:20;13.13;;;8.10;;
77701;SDS011;66868;42.708;23.404;2024-02-04T00:59:45;12.60;;;7.87;;
77701;SDS011;66868;42.708;23.404;2024-02-04T01:02:11;14.57;;;7.67;;
77701;SDS011;66868;42.708;23.404;2024-02-04T01:04:36;13.37;;;7.73;;
77701;SDS011;66868;42.708;23.404;2024-02-04T01:07:01;15.87;;;7.73;;
77701;SDS011;66868;42.708;23.404;2024-02-04T01:09:30;12.30;;;8.10;;
77701;SDS011;66868;42.708;23.404;2024-02-04T01:11:55;12.03;;;8.60;;
77701;SDS011;66868;42.708;23.404;2024-02-04T01:14:21;18.43;;;9.50;;
77701;SDS011;66868;42.708;23.404;2024-02-04T01:16:46;12.90;;;8.00;;
77701;SDS011;66868;42.708;23.404;2024-02-04T01:19:12;16.17;;;9.10;;
77701;SDS011;66868;42.708;23.404;2024-02-04T01:21:37;13.10;;;8.77;;
77701;SDS011;66868;42.708;23.404;2024-02-04T01:24:03;18.33;;;8.70;;
77701;SDS011;66868;42.708;23.404;2024-02-04T01:26:28;16.97;;;9.93;;
77701;SDS011;66868;42.708;23.404;2024-02-04T01:28:54;18.20;;;7.63;;
77701;SDS011;66868;42.708;23.404;2024-02-04T01:31:19;12.73;;;8.23;;
77701;SDS011;66868;42.708;23.404;2024-02-04T01:33:45;14.40;;;8.33;;
77701;SDS011;66868;42.708;23.404;2024-02-04T01:36:10;14.00;;;8.13;;
77701;SDS011;66868;42.708;23.404;2024-02-04T01:38:35;8.80;;;6.68;;
77701;SDS011;66868;42.708;23.404;2024-02-04T01:41:01;13.67;;;8.33;;
77701;SDS011;66868;42.708;23.404;2024-02-04T01:43:26;11.77;;;7.30;;
77701;SDS011;66868;42.708;23.404;2024-02-04T01:45:52;15.77;;;10.57;;
77701;SDS011;66868;42.708;23.404;2024-02-04T01:48:21;16.63;;;10.50;;
77701;SDS011;66868;42.708;23.404;2024-02-04T01:50:47;9.17;;;7.77;;
77701;SDS011;66868;42.708;23.404;2024-02-04T01:53:16;14.30;;;7.47;;
77701;SDS011;66868;42.708;23.404;2024-02-04T01:55:45;10.97;;;7.27;;
77701;SDS011;66868;42.708;23.404;2024-02-04T01:58:12;11.77;;;6.73;;
77701;SDS011;66868;42.708;23.404;2024-02-04T02:00:37;9.37;;;6.50;;
77701;SDS011;66868;42.708;23.404;2024-02-04T02:03:04;6.90;;;6.07;;
77701;SDS011;66868;42.708;23.404;2024-02-04T02:05:31;9.20;;;6.20;;
77701;SDS011;66868;42.708;23.404;2024-02-04T02:07:57;11.57;;;6.20;;
77701;SDS011;66868;42.708;23.404;2024-02-04T02:10:23;7.10;;;5.53;;
77701;SDS011;66868;42.708;23.404;2024-02-04T02:12:55;7.53;;;5.90;;
77701;SDS011;66868;42.708;23.404;2024-02-04T02:15:27;6.03;;;5.22;;
77701;SDS011;66868;42.708;23.404;2024-02-04T02:18:07;8.10;;;6.53;;
77701;SDS011;66868;42.708;23.404;2024-02-04T02:23:34;5.32;;;4.70;;
77701;SDS011;66868;42.708;23.404;2024-02-04T02:26:03;6.80;;;5.00;;
77701;SDS011;66868;42.708;23.404;2024-02-04T02:28:31;5.85;;;5.25;;
77701;SDS011;66868;42.708;23.404;2024-02-04T02:30:57;7.63;;;6.22;;
77701;SDS011;66868;42.708;23.404;2024-02-04T02:33:23;8.27;;;5.80;;
77701;SDS011;66868;42.708;23.404;2024-02-04T02:35:49;7.10;;;5.05;;
77701;SDS011;66868;42.708;23.404;2024-02-04T02:38:33;6.13;;;5.53;;
77701;SDS011;66868;42.708;23.404;2024-02-04T02:41:30;14.30;;;7.25;;
77701;SDS011;66868;42.708;23.404;2024-02-04T02:43:57;11.35;;;6.93;;
77701;SDS011;66868;42.708;23.404;2024-02-04T02:46:25;8.70;;;5.80;;
77701;SDS011;66868;42.708;23.404;2024-02-04T02:48:51;11.80;;;6.53;;
77701;SDS011;66868;42.708;23.404;2024-02-04T02:51:17;7.80;;;5.68;;
77701;SDS011;66868;42.708;23.404;2024-02-04T02:53:43;6.55;;;5.78;;
77701;SDS011;66868;42.708;23.404;2024-02-04T02:56:08;7.47;;;6.20;;
77701;SDS011;66868;42.708;23.404;2024-02-04T02:58:34;9.73;;;6.78;;
77701;SDS011;66868;42.708;23.404;2024-02-04T03:00:59;9.75;;;6.53;;
77701;SDS011;66868;42.708;23.404;2024-02-04T03:03:25;6.90;;;6.10;;
77701;SDS011;66868;42.708;23.404;2024-02-04T03:05:50;9.65;;;6.22;;
77701;SDS011;66868;42.708;23.404;2024-02-04T03:08:15;6.50;;;5.85;;
77701;SDS011;66868;42.708;23.404;2024-02-04T03:10:42;6.63;;;5.20;;
77701;SDS011;66868;42.708;23.404;2024-02-04T03:13:07;7.55;;;6.13;;
77701;SDS011;66868;42.708;23.404;2024-02-04T03:15:33;6.93;;;5.55;;
77701;SDS011;66868;42.708;23.404;2024-02-04T03:17:59;7.30;;;6.45;;
77701;SDS011;66868;42.708;23.404;2024-02-04T03:20:24;9.35;;;7.03;;
77701;SDS011;66868;42.708;23.404;2024-02-04T03:22:50;13.27;;;7.18;;
77701;SDS011;66868;42.708;23.404;2024-02-04T03:25:15;7.30;;;6.60;;
77701;SDS011;66868;42.708;23.404;2024-02-04T03:27:41;8.52;;;6.40;;
77701;SDS011;66868;42.708;23.404;2024-02-04T03:30:07;9.80;;;6.75;;
77701;SDS011;66868;42.708;23.404;2024-02-04T03:32:33;10.18;;;6.03;;
77701;SDS011;66868;42.708;23.404;2024-02-04T03:35:02;6.88;;;5.72;;
77701;SDS011;66868;42.708;23.404;2024-02-04T03:37:28;8.00;;;6.68;;
77701;SDS011;66868;42.708;23.404;2024-02-04T03:39:54;5.88;;;5.07;;
77701;SDS011;66868;42.708;23.404;2024-02-04T03:42:19;6.13;;;5.22;;
77701;SDS011;66868;42.708;23.404;2024-02-04T03:44:46;16.60;;;9.02;;
77701;SDS011;66868;42.708;23.404;2024-02-04T03:47:12;11.43;;;7.47;;
77701;SDS011;66868;42.708;23.404;2024-02-04T03:49:37;10.20;;;7.13;;
77701;SDS011;66868;42.708;23.404;2024-02-04T03:52:03;19.10;;;9.83;;
77701;SDS011;66868;42.708;23.404;2024-02-04T03:54:29;7.88;;;5.55;;
77701;SDS011;66868;42.708;23.404;2024-02-04T03:56:54;4.63;;;4.20;;
77701;SDS011;66868;42.708;23.404;2024-02-04T03:59:19;5.07;;;4.57;;
77701;SDS011;66868;42.708;23.404;2024-02-04T04:01:48;12.45;;;5.43;;
77701;SDS011;66868;42.708;23.404;2024-02-04T04:04:18;6.43;;;4.90;;
77701;SDS011;66868;42.708;23.404;2024-02-04T04:06:44;5.80;;;4.45;;
77701;SDS011;66868;42.708;23.404;2024-02-04T04:09:10;7.47;;;4.72;;
77701;SDS011;66868;42.708;23.404;2024-02-04T04:11:36;5.13;;;4.65;;
77701;SDS011;66868;42.708;23.404;2024-02-04T04:14:02;6.47;;;5.78;;
77701;SDS011;66868;42.708;23.404;2024-02-04T04:16:27;6.67;;;5.27;;
77701;SDS011;66868;42.708;23.404;2024-02-04T04:18:53;7.57;;;5.65;;
77701;SDS011;66868;42.708;23.404;2024-02-04T04:21:19;5.00;;;4.50;;
77701;SDS011;66868;42.708;23.404;2024-02-04T04:23:45;8.27;;;6.40;;
77701;SDS011;66868;42.708;23.404;2024-02-04T04:26:11;9.10;;;6.97;;
77701;SDS011;66868;42.708;23.404;2024-02-04T04:28:36;8.07;;;6.30;;
77701;SDS011;66868;42.708;23.404;2024-02-04T04:31:02;8.20;;;7.00;;
77701;SDS011;66868;42.708;23.404;2024-02-04T04:33:28;9.25;;;6.60;;
77701;SDS011;66868;42.708;23.404;2024-02-04T04:35:54;8.70;;;7.07;;
77701;SDS011;66868;42.708;23.404;2024-02-04T04:38:19;6.53;;;5.93;;
77701;SDS011;66868;42.708;23.404;2024-02-04T04:40:45;8.05;;;6.75;;
77701;SDS011;66868;42.708;23.404;2024-02-04T04:43:10;7.13;;;6.00;;
77701;SDS011;66868;42.708;23.404;2024-02-04T04:45:35;7.47;;;5.27;;
77701;SDS011;66868;42.708;23.404;2024-02-04T04:48:01;7.05;;;6.00;;
77701;SDS011;66868;42.708;23.404;2024-02-04T04:50:26;9.63;;;6.18;;
77701;SDS011;66868;42.708;23.404;2024-02-04T04:52:52;10.13;;;5.88;;
77701;SDS011;66868;42.708;23.404;2024-02-04T04:55:18;7.25;;;6.30;;
77701;SDS011;66868;42.708;23.404;2024-02-04T04:57:44;5.72;;;4.63;;
77701;SDS011;66868;42.708;23.404;2024-02-04T05:00:10;6.70;;;5.85;;
77701;SDS011;66868;42.708;23.404;2024-02-04T05:02:37;9.65;;;6.65;;
77701;SDS011;66868;42.708;23.404;2024-02-04T05:05:05;7.18;;;5.35;;
77701;SDS011;66868;42.708;23.404;2024-02-04T05:07:31;8.82;;;5.32;;
77701;SDS011;66868;42.708;23.404;2024-02-04T05:09:56;6.20;;;5.45;;
77701;SDS011;66868;42.708;23.404;2024-02-04T05:12:22;15.88;;;8.90;;
77701;SDS011;66868;42.708;23.404;2024-02-04T05:14:47;7.05;;;5.45;;
77701;SDS011;66868;42.708;23.404;2024-02-04T05:17:13;8.43;;;4.95;;
77701;SDS011;66868;42.708;23.404;2024-02-04T05:19:40;6.18;;;5.35;;
77701;SDS011;66868;42.708;23.404;2024-02-04T05:22:07;7.05;;;5.68;;
77701;SDS011;66868;42.708;23.404;2024-02-04T05:24:33;7.00;;;6.15;;
77701;SDS011;66868;42.708;23.404;2024-02-04T05:26:58;7.20;;;5.30;;
77701;SDS011;66868;42.708;23.404;2024-02-04T05:29:23;4.97;;;4.43;;
77701;SDS011;66868;42.708;23.404;2024-02-04T05:31:49;5.00;;;4.50;;
77701;SDS011;66868;42.708;23.404;2024-02-04T05:34:14;6.30;;;4.15;;
77701;SDS011;66868;42.708;23.404;2024-02-04T05:36:40;6.82;;;4.13;;
77701;SDS011;66868;42.708;23.404;2024-02-04T05:41:37;3.63;;;3.03;;
77701;SDS011;66868;42.708;23.404;2024-02-04T05:44:03;3.83;;;3.50;;
77701;SDS011;66868;42.708;23.404;2024-02-04T05:46:28;4.00;;;3.70;;
77701;SDS011;66868;42.708;23.404;2024-02-04T05:48:54;4.65;;;4.25;;
77701;SDS011;66868;42.708;23.404;2024-02-04T05:51:19;4.30;;;4.03;;
77701;SDS011;66868;42.708;23.404;2024-02-04T05:53:45;5.00;;;4.13;;
77701;SDS011;66868;42.708;23.404;2024-02-04T05:56:11;6.53;;;4.20;;
77701;SDS011;66868;42.708;23.404;2024-02-04T05:58:36;7.93;;;4.13;;
77701;SDS011;66868;42.708;23.404;2024-02-04T06:01:02;5.85;;;4.05;;
77701;SDS011;66868;42.708;23.404;2024-02-04T06:03:28;6.13;;;4.78;;
77701;SDS011;66868;42.708;23.404;2024-02-04T06:05:53;9.00;;;4.25;;
77701;SDS011;66868;42.708;23.404;2024-02-04T06:08:19;4.60;;;4.20;;
77701;SDS011;66868;42.708;23.404;2024-02-04T06:10:44;7.72;;;4.80;;
77701;SDS011;66868;42.708;23.404;2024-02-04T06:13:10;7.40;;;4.72;;
77701;SDS011;66868;42.708;23.404;2024-02-04T06:15:36;9.98;;;6.80;;
77701;SDS011;66868;42.708;23.404;2024-02-04T06:18:01;8.25;;;6.75;;
77701;SDS011;66868;42.708;23.404;2024-02-04T06:20:26;9.68;;;7.65;;
77701;SDS011;66868;42.708;23.404;2024-02-04T06:22:52;8.65;;;6.90;;
77701;SDS011;66868;42.708;23.404;2024-02-04T06:25:17;8.25;;;6.18;;
77701;SDS011;66868;42.708;23.404;2024-02-04T06:27:43;7.03;;;6.30;;
77701;SDS011;66868;42.708;23.404;2024-02-04T06:30:08;9.10;;;6.65;;
77701;SDS011;66868;42.708;23.404;2024-02-04T06:32:34;8.98;;;7.75;;
77701;SDS011;66868;42.708;23.404;2024-02-04T06:35:00;7.03;;;6.32;;
77701;SDS011;66868;42.708;23.404;2024-02-04T06:37:25;12.65;;;6.95;;
77701;SDS011;66868;42.708;23.404;2024-02-04T06:39:52;11.73;;;8.00;;
77701;SDS011;66868;42.708;23.404;2024-02-04T06:42:18;10.48;;;8.00;;
77701;SDS011;66868;42.708;23.404;2024-02-04T06:44:44;16.23;;;7.25;;
77701;SDS011;66868;42.708;23.404;2024-02-04T06:47:10;10.75;;;7.20;;
77701;SDS011;66868;42.708;23.404;2024-02-04T06:49:38;17.55;;;7.88;;
77701;SDS011;66868;42.708;23.404;2024-02-04T06:52:04;10.00;;;7.53;;
77701;SDS011;66868;42.708;23.404;2024-02-04T06:54:30;7.45;;;6.30;;
77701;SDS011;66868;42.708;23.404;2024-02-04T06:56:55;8.05;;;6.35;;
77701;SDS011;66868;42.708;23.404;2024-02-04T06:59:21;7.65;;;6.70;;
77701;SDS011;66868;42.708;23.404;2024-02-04T07:01:46;5.18;;;4.68;;
77701;SDS011;66868;42.708;23.404;2024-02-04T07:04:12;4.60;;;4.20;;
77701;SDS011;66868;42.708;23.404;2024-02-04T07:06:38;5.03;;;4.10;;
77701;SDS011;66868;42.708;23.404;2024-02-04T07:09:03;4.47;;;4.07;;
77701;SDS011;66868;42.708;23.404;2024-02-04T07:11:29;6.15;;;4.72;;
77701;SDS011;66868;42.708;23.404;2024-02-04T07:13:54;4.78;;;4.32;;
77701;SDS011;66868;42.708;23.404;2024-02-04T07:16:25;6.22;;;4.25;;
77701;SDS011;66868;42.708;23.404;2024-02-04T07:18:51;3.83;;;3.20;;
77701;SDS011;66868;42.708;23.404;2024-02-04T07:21:16;4.10;;;3.80;;
77701;SDS011;66868;42.708;23.404;2024-02-04T07:23:42;3.45;;;3.25;;
77701;SDS011;66868;42.708;23.404;2024-02-04T07:26:07;3.75;;;3.42;;
77701;SDS011;66868;42.708;23.404;2024-02-04T07:28:33;3.85;;;3.08;;
77701;SDS011;66868;42.708;23.404;2024-02-04T07:30:59;7.15;;;3.38;;
77701;SDS011;66868;42.708;23.404;2024-02-04T07:33:25;4.30;;;3.47;;
77701;SDS011;66868;42.708;23.404;2024-02-04T07:35:50;6.50;;;3.67;;
77701;SDS011;66868;42.708;23.404;2024-02-04T07:38:16;6.88;;;3.67;;
77701;SDS011;66868;42.708;23.404;2024-02-04T07:40:41;5.82;;;3.80;;
77701;SDS011;66868;42.708;23.404;2024-02-04T07:43:07;7.28;;;3.67;;
77701;SDS011;66868;42.708;23.404;2024-02-04T07:45:34;3.92;;;3.50;;
77701;SDS011;66868;42.708;23.404;2024-02-04T07:47:59;4.38;;;3.17;;
77701;SDS011;66868;42.708;23.404;2024-02-04T07:50:25;3.42;;;2.78;;
77701;SDS011;66868;42.708;23.404;2024-02-04T07:52:51;6.80;;;3.60;;
77701;SDS011;66868;42.708;23.404;2024-02-04T07:55:17;2.72;;;2.63;;
77701;SDS011;66868;42.708;23.404;2024-02-04T07:57:42;3.58;;;3.25;;
77701;SDS011;66868;42.708;23.404;2024-02-04T08:00:08;5.35;;;3.13;;
77701;SDS011;66868;42.708;23.404;2024-02-04T08:02:35;2.90;;;2.70;;
77701;SDS011;66868;42.708;23.404;2024-02-04T08:05:02;4.28;;;3.03;;
77701;SDS011;66868;42.708;23.404;2024-02-04T08:07:28;3.35;;;3.05;;
77701;SDS011;66868;42.708;23.404;2024-02-04T08:09:54;3.08;;;2.88;;
77701;SDS011;66868;42.708;23.404;2024-02-04T08:12:20;3.20;;;2.85;;
77701;SDS011;66868;42.708;23.404;2024-02-04T08:14:45;4.57;;;2.72;;
77701;SDS011;66868;42.708;23.404;2024-02-04T08:17:11;4.30;;;3.55;;
77701;SDS011;66868;42.708;23.404;2024-02-04T08:19:36;3.35;;;2.95;;
77701;SDS011;66868;42.708;23.404;2024-02-04T08:22:02;4.78;;;3.10;;
77701;SDS011;66868;42.708;23.404;2024-02-04T08:24:27;7.20;;;3.22;;
77701;SDS011;66868;42.708;23.404;2024-02-04T08:26:54;2.80;;;2.60;;
77701;SDS011;66868;42.708;23.404;2024-02-04T08:29:20;4.68;;;1.85;;
77701;SDS011;66868;42.708;23.404;2024-02-04T08:31:45;2.20;;;1.95;;
77701;SDS011;66868;42.708;23.404;2024-02-04T08:34:11;3.33;;;2.13;;
77701;SDS011;66868;42.708;23.404;2024-02-04T08:36:37;2.22;;;2.10;;
77701;SDS011;66868;42.708;23.404;2024-02-04T08:39:02;1.90;;;1.80;;
77701;SDS011;66868;42.708;23.404;2024-02-04T08:41:28;2.40;;;2.30;;
77701;SDS011;66868;42.708;23.404;2024-02-04T08:43:53;1.90;;;1.80;;
77701;SDS011;66868;42.708;23.404;2024-02-04T08:46:19;2.25;;;2.08;;
77701;SDS011;66868;42.708;23.404;2024-02-04T08:48:44;3.92;;;2.30;;
77701;SDS011;66868;42.708;23.404;2024-02-04T08:51:10;3.90;;;1.90;;
77701;SDS011;66868;42.708;23.404;2024-02-04T08:53:37;4.32;;;1.98;;
77701;SDS011;66868;42.708;23.404;2024-02-04T08:56:02;1.88;;;1.70;;
77701;SDS011;66868;42.708;23.404;2024-02-04T08:58:29;3.03;;;1.80;;
77701;SDS011;66868;42.708;23.404;2024-02-04T09:00:54;3.72;;;1.98;;
77701;SDS011;66868;42.708;23.404;2024-02-04T09:03:20;1.20;;;1.20;;
77701;SDS011;66868;42.708;23.404;2024-02-04T09:05:45;1.90;;;1.70;;
77701;SDS011;66868;42.708;23.404;2024-02-04T09:08:11;2.30;;;2.10;;
77701;SDS011;66868;42.708;23.404;2024-02-04T09:10:36;2.90;;;2.20;;
77701;SDS011;66868;42.708;23.404;2024-02-04T09:13:02;10.57;;;2.13;;
77701;SDS011;66868;42.708;23.404;2024-02-04T09:15:28;2.03;;;1.67;;
77701;SDS011;66868;42.708;23.404;2024-02-04T09:17:53;2.10;;;1.92;;
77701;SDS011;66868;42.708;23.404;2024-02-04T09:20:19;4.68;;;1.92;;
77701;SDS011;66868;42.708;23.404;2024-02-04T09:22:44;1.65;;;1.55;;
77701;SDS011;66868;42.708;23.404;2024-02-04T09:25:10;1.95;;;1.85;;
77701;SDS011;66868;42.708;23.404;2024-02-04T09:27:35;10.82;;;5.55;;
77701;SDS011;66868;42.708;23.404;2024-02-04T09:30:01;8.50;;;2.95;;
77701;SDS011;66868;42.708;23.404;2024-02-04T09:32:27;2.70;;;2.30;;
77701;SDS011;66868;42.708;23.404;2024-02-04T09:34:53;2.17;;;2.08;;
77701;SDS011;66868;42.708;23.404;2024-02-04T09:37:18;3.38;;;2.65;;
77701;SDS011;66868;42.708;23.404;2024-02-04T09:39:44;2.58;;;2.30;;
77701;SDS011;66868;42.708;23.404;2024-02-04T09:42:09;2.25;;;1.63;;
77701;SDS011;66868;42.708;23.404;2024-02-04T09:44:42;1.35;;;1.20;;
77701;SDS011;66868;42.708;23.404;2024-02-04T09:47:07;5.25;;;2.03;;
77701;SDS011;66868;42.708;23.404;2024-02-04T09:49:36;3.38;;;1.90;;
77701;SDS011;66868;42.708;23.404;2024-02-04T09:52:04;1.60;;;1.48;;
77701;SDS011;66868;42.708;23.404;2024-02-04T09:54:34;1.70;;;1.60;;
77701;SDS011;66868;42.708;23.404;2024-02-04T09:57:02;1.95;;;1.67;;
77701;SDS011;66868;42.708;23.404;2024-02-04T09:59:28;6.78;;;1.98;;
77701;SDS011;66868;42.708;23.404;2024-02-04T10:01:54;3.05;;;1.92;;
77701;SDS011;66868;42.708;23.404;2024-02-04T10:04:20;1.85;;;1.70;;
77701;SDS011;66868;42.708;23.404;2024-02-04T10:06:46;1.40;;;1.30;;
77701;SDS011;66868;42.708;23.404;2024-02-04T10:09:12;1.70;;;1.60;;
77701;SDS011;66868;42.708;23.404;2024-02-04T10:11:38;1.90;;;1.80;;
77701;SDS011;66868;42.708;23.404;2024-02-04T10:14:03;2.47;;;2.22;;
77701;SDS011;66868;42.708;23.404;2024-02-04T10:16:29;1.85;;;1.75;;
77701;SDS011;66868;42.708;23.404;2024-02-04T10:18:55;3.08;;;1.63;;
77701;SDS011;66868;42.708;23.404;2024-02-04T10:21:21;1.88;;;1.45;;
77701;SDS011;66868;42.708;23.404;2024-02-04T10:23:49;2.95;;;1.85;;
77701;SDS011;66868;42.708;23.404;2024-02-04T10:26:16;1.75;;;1.65;;
77701;SDS011;66868;42.708;23.404;2024-02-04T10:28:44;2.60;;;1.70;;
77701;SDS011;66868;42.708;23.404;2024-02-04T10:31:11;8.95;;;2.20;;
77701;SDS011;66868;42.708;23.404;2024-02-04T10:33:37;3.97;;;1.60;;
77701;SDS011;66868;42.708;23.404;2024-02-04T10:36:03;1.73;;;1.63;;
77701;SDS011;66868;42.708;23.404;2024-02-04T10:38:29;3.15;;;1.70;;
77701;SDS011;66868;42.708;23.404;2024-02-04T10:40:59;2.85;;;1.75;;
77701;SDS011;66868;42.708;23.404;2024-02-04T10:43:27;1.40;;;1.30;;
77701;SDS011;66868;42.708;23.404;2024-02-04T10:45:56;3.75;;;1.70;;
77701;SDS011;66868;42.708;23.404;2024-02-04T10:48:26;1.90;;;1.80;;
77701;SDS011;66868;42.708;23.404;2024-02-04T10:50:54;1.95;;;1.75;;
77701;SDS011;66868;42.708;23.404;2024-02-04T10:53:21;1.27;;;1.27;;
77701;SDS011;66868;42.708;23.404;2024-02-04T10:55:47;1.73;;;1.35;;
77701;SDS011;66868;42.708;23.404;2024-02-04T10:58:16;1.52;;;1.23;;
77701;SDS011;66868;42.708;23.404;2024-02-04T11:00:43;1.10;;;1.10;;
77701;SDS011;66868;42.708;23.404;2024-02-04T11:03:09;1.95;;;1.20;;
77701;SDS011;66868;42.708;23.404;2024-02-04T11:05:36;6.00;;;1.17;;
77701;SDS011;66868;42.708;23.404;2024-02-04T11:08:03;1.90;;;1.25;;
77701;SDS011;66868;42.708;23.404;2024-02-04T11:10:29;3.33;;;1.75;;
77701;SDS011;66868;42.708;23.404;2024-02-04T11:13:00;3.08;;;1.45;;
77701;SDS011;66868;42.708;23.404;2024-02-04T11:15:28;1.30;;;1.20;;
77701;SDS011;66868;42.708;23.404;2024-02-04T11:20:46;0.90;;;0.90;;
77701;SDS011;66868;42.708;23.404;2024-02-04T11:23:23;3.63;;;1.20;;
77701;SDS011;66868;42.708;23.404;2024-02-04T11:25:54;4.55;;;1.48;;
77701;SDS011;66868;42.708;23.404;2024-02-04T11:28:21;2.60;;;1.60;;
77701;SDS011;66868;42.708;23.404;2024-02-04T11:30:50;1.60;;;1.50;;
77701;SDS011;66868;42.708;23.404;2024-02-04T11:33:20;1.50;;;1.50;;
77701;SDS011;66868;42.708;23.404;2024-02-04T11:35:47;1.95;;;1.20;;
77701;SDS011;66868;42.708;23.404;2024-02-04T11:38:31;3.72;;;1.90;;
77701;SDS011;66868;42.708;23.404;2024-02-04T11:41:01;1.63;;;1.52;;
77701;SDS011;66868;42.708;23.404;2024-02-04T11:43:28;1.33;;;1.33;;
77701;SDS011;66868;42.708;23.404;2024-02-04T11:45:54;3.15;;;1.45;;
77701;SDS011;66868;42.708;23.404;2024-02-04T11:48:19;1.27;;;1.27;;
77701;SDS011;66868;42.708;23.404;2024-02-04T11:50:51;5.82;;;1.73;;
77701;SDS011;66868;42.708;23.404;2024-02-04T11:53:18;1.02;;;1.02;;
77701;SDS011;66868;42.708;23.404;2024-02-04T11:55:44;1.42;;;1.42;;
77701;SDS011;66868;42.708;23.404;2024-02-04T11:58:10;1.00;;;1.00;;
77701;SDS011;66868;42.708;23.404;2024-02-04T12:00:37;3.50;;;1.20;;
77701;SDS011;66868;42.708;23.404;2024-02-04T12:03:06;1.65;;;1.42;;
77701;SDS011;66868;42.708;23.404;2024-02-04T12:05:36;4.50;;;1.58;;
77701;SDS011;66868;42.708;23.404;2024-02-04T12:08:04;3.70;;;1.30;;
77701;SDS011;66868;42.708;23.404;2024-02-04T12:10:31;1.23;;;1.23;;
77701;SDS011;66868;42.708;23.404;2024-02-04T12:13:04;1.40;;;1.30;;
77701;SDS011;66868;42.708;23.404;2024-02-04T12:15:32;1.27;;;1.23;;
77701;SDS011;66868;42.708;23.404;2024-02-04T12:18:05;1.75;;;1.58;;
77701;SDS011;66868;42.708;23.404;2024-02-04T12:20:32;1.33;;;1.23;;
77701;SDS011;66868;42.708;23.404;2024-02-04T12:22:57;1.42;;;1.42;;
77701;SDS011;66868;42.708;23.404;2024-02-04T12:25:23;1.77;;;1.60;;
77701;SDS011;66868;42.708;23.404;2024-02-04T12:27:51;1.30;;;1.30;;
77701;SDS011;66868;42.708;23.404;2024-02-04T12:30:17;1.38;;;1.27;;
77701;SDS011;66868;42.708;23.404;2024-02-04T12:32:43;1.35;;;1.30;;
77701;SDS011;66868;42.708;23.404;2024-02-04T12:35:13;1.33;;;1.33;;
77701;SDS011;66868;42.708;23.404;2024-02-04T12:37:49;2.97;;;1.50;;
77701;SDS011;66868;42.708;23.404;2024-02-04T12:40:20;1.45;;;1.35;;
77701;SDS011;66868;42.708;23.404;2024-02-04T12:43:10;1.02;;;1.02;;
77701;SDS011;66868;42.708;23.404;2024-02-04T12:45:36;1.40;;;1.40;;
77701;SDS011;66868;42.708;23.404;2024-02-04T12:48:02;1.50;;;1.40;;
77701;SDS011;66868;42.708;23.404;2024-02-04T12:50:28;1.15;;;1.15;;
77701;SDS011;66868;42.708;23.404;2024-02-04T12:53:07;1.90;;;1.80;;
77701;SDS011;66868;42.708;23.404;2024-02-04T12:55:36;1.30;;;1.30;;
77701;SDS011;66868;42.708;23.404;2024-02-04T12:58:06;2.17;;;1.85;;
77701;SDS011;66868;42.708;23.404;2024-02-04T13:00:36;2.17;;;1.92;;
77701;SDS011;66868;42.708;23.404;2024-02-04T13:03:06;2.25;;;1.73;;
77701;SDS011;66868;42.708;23.404;2024-02-04T13:05:36;2.35;;;1.90;;
77701;SDS011;66868;42.708;23.404;2024-02-04T13:08:02;1.90;;;1.80;;
77701;SDS011;66868;42.708;23.404;2024-02-04T13:10:33;2.60;;;2.40;;
77701;SDS011;66868;42.708;23.404;2024-02-04T13:13:01;3.08;;;2.10;;
77701;SDS011;66868;42.708;23.404;2024-02-04T13:15:32;2.30;;;2.00;;
77701;SDS011;66868;42.708;23.404;2024-02-04T13:18:00;1.33;;;1.25;;
77701;SDS011;66868;42.708;23.404;2024-02-04T13:20:26;1.98;;;1.88;;
77701;SDS011;66868;42.708;23.404;2024-02-04T13:22:51;3.10;;;1.83;;
77701;SDS011;66868;42.708;23.404;2024-02-04T13:25:20;1.75;;;1.65;;
77701;SDS011;66868;42.708;23.404;2024-02-04T13:27:47;1.90;;;1.80;;
77701;SDS011;66868;42.708;23.404;2024-02-04T13:30:13;1.92;;;1.83;;
77701;SDS011;66868;42.708;23.404;2024-02-04T13:32:39;2.60;;;1.65;;
77701;SDS011;66868;42.708;23.404;2024-02-04T13:35:08;3.35;;;2.03;;
77701;SDS011;66868;42.708;23.404;2024-02-04T13:37:44;4.50;;;2.50;;
77701;SDS011;66868;42.708;23.404;2024-02-04T13:40:16;5.57;;;2.65;;
77701;SDS011;66868;42.708;23.404;2024-02-04T13:42:42;1.90;;;1.80;;
77701;SDS011;66868;42.708;23.404;2024-02-04T13:45:08;4.82;;;2.10;;
77701;SDS011;66868;42.708;23.404;2024-02-04T13:47:34;2.03;;;1.92;;
77701;SDS011;66868;42.708;23.404;2024-02-04T13:50:00;4.13;;;1.83;;
77701;SDS011;66868;42.708;23.404;2024-02-04T13:52:26;1.90;;;1.80;;
77701;SDS011;66868;42.708;23.404;2024-02-04T13:54:52;1.60;;;1.50;;
77701;SDS011;66868;42.708;23.404;2024-02-04T13:57:17;1.95;;;1.80;;
77701;SDS011;66868;42.708;23.404;2024-02-04T13:59:43;1.50;;;1.40;;
77701;SDS011;66868;42.708;23.404;2024-02-04T14:02:08;2.13;;;2.00;;
77701;SDS011;66868;42.708;23.404;2024-02-04T14:04:34;3.90;;;1.63;;
77701;SDS011;66868;42.708;23.404;2024-02-04T14:07:00;1.70;;;1.60;;
77701;SDS011;66868;42.708;23.404;2024-02-04T14:09:26;1.90;;;1.80;;
77701;SDS011;66868;42.708;23.404;2024-02-04T14:11:52;3.63;;;1.75;;
77701;SDS011;66868;42.708;23.404;2024-02-04T14:14:19;1.75;;;1.65;;
77701;SDS011;66868;42.708;23.404;2024-02-04T14:16:45;1.88;;;1.77;;
77701;SDS011;66868;42.708;23.404;2024-02-04T14:19:11;1.88;;;1.77;;
77701;SDS011;66868;42.708;23.404;2024-02-04T14:21:39;1.55;;;1.55;;
77701;SDS011;66868;42.708;23.404;2024-02-04T14:24:05;1.88;;;1.77;;
77701;SDS011;66868;42.708;23.404;2024-02-04T14:26:31;2.17;;;1.33;;
77701;SDS011;66868;42.708;23.404;2024-02-04T14:28:56;1.67;;;1.58;;
77701;SDS011;66868;42.708;23.404;2024-02-04T14:31:22;1.52;;;1.42;;
77701;SDS011;66868;42.708;23.404;2024-02-04T14:33:47;1.98;;;1.63;;
77701;SDS011;66868;42.708;23.404;2024-02-04T14:36:14;1.30;;;1.30;;